TimeCDT,TemperatureF,Dew PointF,Humidity,Sea Level PressureIn,VisibilityMPH,Wind Direction,Wind SpeedMPH,Gust SpeedMPH,PrecipitationIn,Events,Conditions,WindDirDegrees,DateUTC
12:04 AM,-7.6,-11.2,84,30.43,0.5,Calm,Calm,-,N/A,,Haze,0,2013-03-26 05:04:00
12:07 AM,-7.6,-13.0,77,30.43,0.5,Calm,Calm,-,N/A,,Haze,0,2013-03-26 05:07:00
12:14 AM,-7.6,-13.0,77,30.43,0.5,Calm,Calm,-,N/A,,Haze,0,2013-03-26 05:14:00
12:17 AM,-7.6,-13.0,77,30.43,0.5,Calm,Calm,-,N/A,,Haze,0,2013-03-26 05:17:00
12:18 AM,-7.6,-13.0,77,30.43,0.5,Calm,Calm,-,N/A,,Haze,0,2013-03-26 05:18:00
12:19 AM,-7.6,-13.0,77,30.43,0.5,Calm,Calm,-,N/A,,Haze,0,2013-03-26 05:19:00
12:21 AM,-7.6,-13.0,77,30.43,0.8,Calm,Calm,-,N/A,,Haze,0,2013-03-26 05:21:00
12:29 AM,-7.6,-13.0,77,30.43,0.5,Calm,Calm,-,N/A,,Haze,0,2013-03-26 05:29:00
12:30 AM,-7.6,-13.0,77,30.43,0.5,Calm,Calm,-,N/A,,Haze,0,2013-03-26 05:30:00
12:31 AM,-7.6,-13.0,77,30.43,0.5,Calm,Calm,-,N/A,,Haze,0,2013-03-26 05:31:00
12:44 AM,-9.4,-13.0,84,30.43,0.5,Calm,Calm,-,N/A,,Haze,0,2013-03-26 05:44:00
12:48 AM,-9.4,-13.0,84,30.42,0.8,Calm,Calm,-,N/A,,Haze,0,2013-03-26 05:48:00
12:55 AM,-8.9,-13.7,79,30.42,0.8,Calm,Calm,-,N/A,,Haze,0,2013-03-26 05:55:00
12:59 AM,-9.4,-14.8,77,30.42,0.5,Calm,Calm,-,N/A,,Haze,0,2013-03-26 05:59:00
1:04 AM,-9.4,-14.8,77,30.42,0.5,Calm,Calm,-,N/A,,Haze,0,2013-03-26 06:04:00
1:15 AM,-9.4,-14.8,77,30.42,0.2,Calm,Calm,-,N/A,,Haze,0,2013-03-26 06:15:00
1:20 AM,-9.4,-14.8,77,30.41,0.2,Calm,Calm,-,N/A,,Haze,0,2013-03-26 06:20:00
1:26 AM,-9.4,-14.8,77,30.41,0.2,Calm,Calm,-,N/A,,Haze,0,2013-03-26 06:26:00
1:29 AM,-9.4,-13.0,84,30.41,0.5,Calm,Calm,-,N/A,,Haze,0,2013-03-26 06:29:00
1:39 AM,-9.4,-14.8,77,30.41,0.5,Calm,Calm,-,N/A,,Haze,0,2013-03-26 06:39:00
1:41 AM,-9.4,-14.8,77,30.41,0.5,Calm,Calm,-,N/A,,Haze,0,2013-03-26 06:41:00
1:46 AM,-9.4,-14.8,77,30.41,0.8,Calm,Calm,-,N/A,,Haze,0,2013-03-26 06:46:00
1:48 AM,-9.4,-14.8,77,30.41,0.5,Calm,Calm,-,N/A,,Haze,0,2013-03-26 06:48:00
1:55 AM,-9.2,-13.7,81,30.40,0.5,Calm,Calm,-,N/A,,Haze,0,2013-03-26 06:55:00
1:56 AM,-9.4,-13.0,84,30.40,0.5,Calm,Calm,-,N/A,,Haze,0,2013-03-26 06:56:00
2:07 AM,-7.6,-13.0,77,30.40,0.5,Calm,Calm,-,N/A,,Haze,0,2013-03-26 07:07:00
2:08 AM,-7.6,-13.0,77,30.40,0.5,Calm,Calm,-,N/A,,Haze,0,2013-03-26 07:08:00
2:18 AM,-9.4,-14.8,77,30.40,0.5,Calm,Calm,-,N/A,,Haze,0,2013-03-26 07:18:00
2:19 AM,-9.4,-14.8,77,30.40,0.5,Calm,Calm,-,N/A,,Haze,0,2013-03-26 07:19:00
2:21 AM,-9.4,-14.8,77,30.40,0.2,Calm,Calm,-,N/A,,Haze,0,2013-03-26 07:21:00
2:26 AM,-9.4,-14.8,77,30.40,0.2,Calm,Calm,-,N/A,,Haze,0,2013-03-26 07:26:00
2:48 AM,-9.4,-14.8,77,30.40,0.2,Calm,Calm,-,N/A,,Haze,0,2013-03-26 07:48:00
2:55 AM,-10.5,-15.5,78,30.40,0.2,Calm,Calm,-,N/A,,Haze,0,2013-03-26 07:55:00
2:57 AM,-11.2,-14.8,84,30.40,0.2,Calm,Calm,-,N/A,,Haze,0,2013-03-26 07:57:00
3:13 AM,-11.2,-14.8,84,30.39,0.2,Calm,Calm,-,N/A,,Haze,0,2013-03-26 08:13:00
3:14 AM,-11.2,-14.8,84,30.39,0.2,Calm,Calm,-,N/A,,Haze,0,2013-03-26 08:14:00
3:18 AM,-9.4,-14.8,77,30.39,0.5,Calm,Calm,-,N/A,,Haze,0,2013-03-26 08:18:00
3:19 AM,-9.4,-14.8,77,30.39,0.5,Calm,Calm,-,N/A,,Haze,0,2013-03-26 08:19:00
3:21 AM,-9.4,-14.8,77,30.39,0.8,Calm,Calm,-,N/A,,Haze,0,2013-03-26 08:21:00
3:30 AM,-11.2,-14.8,84,30.39,0.5,Calm,Calm,-,N/A,,Haze,0,2013-03-26 08:30:00
3:32 AM,-11.2,-14.8,84,30.39,0.5,Calm,Calm,-,N/A,,Haze,0,2013-03-26 08:32:00
3:41 AM,-11.2,-16.6,77,30.38,0.5,Calm,Calm,-,N/A,,Haze,0,2013-03-26 08:41:00
3:45 AM,-11.2,-16.6,77,30.38,0.5,Calm,Calm,-,N/A,,Haze,0,2013-03-26 08:45:00
3:51 AM,-11.2,-16.6,77,30.39,0.5,Calm,Calm,-,N/A,,Haze,0,2013-03-26 08:51:00
3:52 AM,-11.2,-16.6,77,30.39,0.5,Calm,Calm,-,N/A,,Haze,0,2013-03-26 08:52:00
3:55 AM,-11.7,-16.8,78,30.39,0.5,Calm,Calm,-,N/A,,Haze,0,2013-03-26 08:55:00
4:02 AM,-11.2,-16.6,77,30.38,0.5,Calm,Calm,-,N/A,,Haze,0,2013-03-26 09:02:00
4:09 AM,-11.2,-16.6,77,30.38,0.8,Calm,Calm,-,N/A,,Haze,0,2013-03-26 09:09:00
4:11 AM,-11.2,-16.6,77,30.38,0.8,Calm,Calm,-,N/A,,Haze,0,2013-03-26 09:11:00
4:13 AM,-11.2,-16.6,77,30.38,1.0,Calm,Calm,-,N/A,,Haze,0,2013-03-26 09:13:00
4:14 AM,-13.0,-16.6,84,30.38,1.0,Calm,Calm,-,N/A,,Haze,0,2013-03-26 09:14:00
4:15 AM,-13.0,-18.4,77,30.38,1.2,Calm,Calm,-,N/A,,Haze,0,2013-03-26 09:15:00
4:16 AM,-13.0,-18.4,77,30.38,1.8,Calm,Calm,-,N/A,,Haze,0,2013-03-26 09:16:00
4:17 AM,-13.0,-18.4,77,30.38,2.0,Calm,Calm,-,N/A,,Haze,0,2013-03-26 09:17:00
4:19 AM,-13.0,-18.4,77,30.38,3.0,Calm,Calm,-,N/A,,Haze,0,2013-03-26 09:19:00
4:55 AM,-11.6,-16.4,79,30.37,4.0,Calm,Calm,-,N/A,,Haze,0,2013-03-26 09:55:00
5:01 AM,-11.2,-14.8,84,30.37,2.5,Calm,Calm,-,N/A,,Haze,0,2013-03-26 10:01:00
5:02 AM,-11.2,-14.8,84,30.37,2.0,Calm,Calm,-,N/A,,Haze,0,2013-03-26 10:02:00
5:03 AM,-11.2,-16.6,77,30.37,1.5,Calm,Calm,-,N/A,,Haze,0,2013-03-26 10:03:00
5:04 AM,-11.2,-16.6,77,30.37,1.2,Calm,Calm,-,N/A,,Haze,0,2013-03-26 10:04:00
5:08 AM,-11.2,-16.6,77,30.37,1.0,Calm,Calm,-,N/A,,Haze,0,2013-03-26 10:08:00
5:10 AM,-11.2,-16.6,77,30.37,1.0,Calm,Calm,-,N/A,,Haze,0,2013-03-26 10:10:00
5:11 AM,-11.2,-16.6,77,30.37,1.0,Calm,Calm,-,N/A,,Haze,0,2013-03-26 10:11:00
5:17 AM,-11.2,-16.6,77,30.37,1.0,Calm,Calm,-,N/A,,Haze,0,2013-03-26 10:17:00
5:26 AM,-9.4,-14.8,77,30.36,0.8,Calm,Calm,-,N/A,,Haze,0,2013-03-26 10:26:00
5:28 AM,-9.4,-14.8,77,30.36,0.5,Calm,Calm,-,N/A,,Haze,0,2013-03-26 10:28:00
5:31 AM,-9.4,-14.8,77,30.37,0.5,Calm,Calm,-,N/A,,Haze,0,2013-03-26 10:31:00
5:32 AM,-9.4,-14.8,77,30.37,0.5,Calm,Calm,-,N/A,,Haze,0,2013-03-26 10:32:00
5:33 AM,-9.4,-14.8,77,30.37,0.2,Calm,Calm,-,N/A,,Haze,0,2013-03-26 10:33:00
5:35 AM,-9.4,-14.8,77,30.37,0.2,Calm,Calm,-,N/A,,Haze,0,2013-03-26 10:35:00
5:45 AM,-9.4,-14.8,77,30.36,0.2,Calm,Calm,-,N/A,,Haze,0,2013-03-26 10:45:00
5:48 AM,-11.2,-14.8,84,30.36,0.2,Calm,Calm,-,N/A,,Haze,0,2013-03-26 10:48:00
5:49 AM,-11.2,-14.8,84,30.36,0.5,Calm,Calm,-,N/A,,Haze,0,2013-03-26 10:49:00
5:52 AM,-11.2,-14.8,84,30.36,0.5,Calm,Calm,-,N/A,,Haze,0,2013-03-26 10:52:00
5:53 AM,-11.2,-16.6,77,30.36,0.5,Calm,Calm,-,N/A,,Haze,0,2013-03-26 10:53:00
5:55 AM,-10.8,-15.9,78,30.36,0.8,Calm,Calm,-,N/A,,Haze,0,2013-03-26 10:55:00
5:56 AM,-11.2,-16.6,77,30.36,0.8,Calm,Calm,-,N/A,,Haze,0,2013-03-26 10:56:00
5:57 AM,-11.2,-16.6,77,30.36,1.0,Calm,Calm,-,N/A,,Haze,0,2013-03-26 10:57:00
5:58 AM,-11.2,-16.6,77,30.36,1.0,Calm,Calm,-,N/A,,Haze,0,2013-03-26 10:58:00
5:59 AM,-11.2,-16.6,77,30.36,1.2,Calm,Calm,-,N/A,,Haze,0,2013-03-26 10:59:00
6:00 AM,-11.2,-16.6,77,30.36,1.5,Calm,Calm,-,N/A,,Haze,0,2013-03-26 11:00:00
6:01 AM,-11.2,-16.6,77,30.36,2.0,Calm,Calm,-,N/A,,Haze,0,2013-03-26 11:01:00
6:04 AM,-11.2,-16.6,77,30.36,3.0,Calm,Calm,-,N/A,,Haze,0,2013-03-26 11:04:00
6:12 AM,-13.0,-16.6,84,30.36,7.0,Calm,Calm,-,N/A,,Clear,0,2013-03-26 11:12:00
6:20 AM,-11.2,-16.6,77,30.36,9.0,Calm,Calm,-,N/A,,Clear,0,2013-03-26 11:20:00
6:36 AM,-11.2,-14.8,84,30.36,2.5,Calm,Calm,-,N/A,,Haze,0,2013-03-26 11:36:00
6:39 AM,-11.2,-14.8,84,30.36,1.5,Calm,Calm,-,N/A,,Haze,0,2013-03-26 11:39:00
6:40 AM,-11.2,-16.6,77,30.36,1.0,Calm,Calm,-,N/A,,Haze,0,2013-03-26 11:40:00
6:42 AM,-11.2,-16.6,77,30.36,0.8,Calm,Calm,-,N/A,,Haze,0,2013-03-26 11:42:00
6:44 AM,-11.2,-16.6,77,30.36,0.5,Calm,Calm,-,N/A,,Haze,0,2013-03-26 11:44:00
6:48 AM,-11.2,-16.6,77,30.37,0.5,Calm,Calm,-,N/A,,Haze,0,2013-03-26 11:48:00
6:52 AM,-11.2,-16.6,77,30.37,0.5,Calm,Calm,-,N/A,,Haze,0,2013-03-26 11:52:00
6:55 AM,-10.7,-15.5,79,30.37,0.5,Calm,Calm,-,N/A,,Haze,0,2013-03-26 11:55:00
6:56 AM,-11.2,-14.8,84,30.37,0.2,Calm,Calm,-,N/A,,Haze,0,2013-03-26 11:56:00
7:00 AM,-11.2,-14.8,84,30.37,0.2,Calm,Calm,-,N/A,,Haze,0,2013-03-26 12:00:00
7:03 AM,-11.2,-16.6,77,30.37,0.2,Calm,Calm,-,N/A,,Haze,0,2013-03-26 12:03:00
7:21 AM,-11.2,-16.6,77,30.37,0.2,Calm,Calm,-,N/A,,Haze,0,2013-03-26 12:21:00
7:23 AM,-11.2,-16.6,77,30.37,0.2,Calm,Calm,-,N/A,,Haze,0,2013-03-26 12:23:00
7:29 AM,-11.2,-16.6,77,30.37,0.2,Calm,Calm,-,N/A,,Haze,0,2013-03-26 12:29:00
7:31 AM,-11.2,-16.6,77,30.37,0.2,Calm,Calm,-,N/A,,Haze,0,2013-03-26 12:31:00
7:42 AM,-11.2,-16.6,77,30.37,0.2,Calm,Calm,-,N/A,,Haze,0,2013-03-26 12:42:00
7:48 AM,-13.0,-18.4,77,30.37,0.2,Calm,Calm,-,N/A,,Haze,0,2013-03-26 12:48:00
7:50 AM,-13.0,-18.4,77,30.38,0.2,Calm,Calm,-,N/A,,Haze,0,2013-03-26 12:50:00
7:55 AM,-12.3,-17.3,78,30.38,0.2,Calm,Calm,-,N/A,,Haze,0,2013-03-26 12:55:00
7:56 AM,-13.0,-16.6,84,30.38,0.2,Calm,Calm,-,N/A,,Haze,0,2013-03-26 12:56:00
7:58 AM,-13.0,-16.6,84,30.38,0.2,Calm,Calm,-,N/A,,Haze,0,2013-03-26 12:58:00
8:10 AM,-13.0,-16.6,84,30.38,0.2,Calm,Calm,-,N/A,,Haze,0,2013-03-26 13:10:00
8:11 AM,-13.0,-16.6,84,30.38,0.2,Calm,Calm,-,N/A,,Haze,0,2013-03-26 13:11:00
8:13 AM,-13.0,-16.6,84,30.38,0.5,Calm,Calm,-,N/A,,Haze,0,2013-03-26 13:13:00
8:27 AM,-13.0,-18.4,77,30.38,0.5,Calm,Calm,-,N/A,,Haze,0,2013-03-26 13:27:00
8:29 AM,-13.0,-16.6,84,30.38,0.5,Calm,Calm,-,N/A,,Haze,0,2013-03-26 13:29:00
8:31 AM,-13.0,-16.6,84,30.38,0.5,Calm,Calm,-,N/A,,Haze,0,2013-03-26 13:31:00
8:32 AM,-13.0,-16.6,84,30.38,0.5,Calm,Calm,-,N/A,,Haze,0,2013-03-26 13:32:00
8:34 AM,-11.2,-16.6,77,30.38,0.8,Calm,Calm,-,N/A,,Haze,0,2013-03-26 13:34:00
8:36 AM,-11.2,-16.6,77,30.38,1.0,Calm,Calm,-,N/A,,Haze,0,2013-03-26 13:36:00
8:38 AM,-11.2,-16.6,77,30.38,1.5,Calm,Calm,-,N/A,,Haze,0,2013-03-26 13:38:00
8:39 AM,-11.2,-16.6,77,30.38,2.0,Calm,Calm,-,N/A,,Haze,0,2013-03-26 13:39:00
8:40 AM,-11.2,-16.6,77,30.38,3.0,Calm,Calm,-,N/A,,Haze,0,2013-03-26 13:40:00
8:55 AM,-10.5,-15.5,78,30.38,7.0,Calm,Calm,-,N/A,,Clear,0,2013-03-26 13:55:00
9:55 AM,-5.4,-10.1,80,30.38,10.0,Calm,Calm,-,0.00,,Clear,0,2013-03-26 14:55:00
10:55 AM,0.7,-3.3,83,30.36,10.0,ESE,4.6,-,0.00,Snow,Light Snow,120,2013-03-26 15:55:00
11:55 AM,7.2,3.9,87,30.35,10.0,SE,10.4,-,0.00,,Clear,140,2013-03-26 16:55:00
12:51 PM,10.4,8.6,92,30.33,2.5,SE,8.1,-,N/A,,Clear,130,2013-03-26 17:51:00
12:53 PM,10.4,8.6,92,30.34,1.8,SE,8.1,-,N/A,,Clear,130,2013-03-26 17:53:00
12:55 PM,11.1,8.2,88,30.33,1.5,ESE,9.2,-,N/A,,Clear,120,2013-03-26 17:55:00
1:00 PM,12.2,8.6,85,30.33,2.0,SE,9.2,-,N/A,,Clear,130,2013-03-26 18:00:00
1:01 PM,12.2,8.6,85,30.33,3.0,ESE,9.2,-,N/A,,Clear,120,2013-03-26 18:01:00
1:55 PM,15.1,12.6,90,30.32,10.0,SE,8.1,-,N/A,,Clear,130,2013-03-26 18:55:00
2:55 PM,18.3,14.0,83,30.32,10.0,ESE,10.4,-,N/A,,Clear,120,2013-03-26 19:55:00
3:55 PM,21.6,17.1,83,30.30,10.0,SE,11.5,-,N/A,,Clear,130,2013-03-26 20:55:00
4:55 PM,22.6,18.1,83,30.30,10.0,ESE,11.5,-,N/A,,Clear,110,2013-03-26 21:55:00
5:55 PM,21.6,17.1,83,30.30,10.0,ESE,15.0,-,N/A,,Clear,110,2013-03-26 22:55:00
6:55 PM,18.3,14.0,83,30.30,10.0,ESE,12.7,-,N/A,,Clear,120,2013-03-26 23:55:00
7:55 PM,12.4,8.8,85,30.32,10.0,SE,12.7,-,N/A,,Clear,130,2013-03-27 00:55:00
8:55 PM,9.5,6.3,87,30.32,10.0,SE,9.2,-,N/A,,Clear,130,2013-03-27 01:55:00
9:55 PM,7.5,4.1,86,30.32,10.0,SE,9.2,-,N/A,,Clear,140,2013-03-27 02:55:00
10:55 PM,2.8,-0.6,86,30.33,10.0,SE,8.1,-,N/A,,Clear,130,2013-03-27 03:55:00
11:55 PM,1.0,-2.7,84,30.32,10.0,SE,6.9,-,N/A,,Clear,130,2013-03-27 04:55:00